sensor_id;sensor_type;location;lat;lon;timestamp;P1;durP1;ratioP1;P2;durP2;ratioP2
19213;SDS011;9741;51.020;5.304;2023-04-15T00:01:37;0.70;;;0.70;;
19213;SDS011;9741;51.020;5.304;2023-04-15T00:04:04;1.20;;;1.10;;
19213;SDS011;9741;51.020;5.304;2023-04-15T00:06:31;1.03;;;0.93;;
19213;SDS011;9741;51.020;5.304;2023-04-15T00:08:58;0.97;;;0.77;;
19213;SDS011;9741;51.020;5.304;2023-04-15T00:11:27;1.07;;;0.73;;
19213;SDS011;9741;51.020;5.304;2023-04-15T00:13:54;1.43;;;1.20;;
19213;SDS011;9741;51.020;5.304;2023-04-15T00:16:22;0.80;;;0.67;;
19213;SDS011;9741;51.020;5.304;2023-04-15T00:18:49;0.43;;;0.43;;
19213;SDS011;9741;51.020;5.304;2023-04-15T00:21:17;0.77;;;0.77;;
19213;SDS011;9741;51.020;5.304;2023-04-15T00:23:44;1.03;;;0.53;;
19213;SDS011;9741;51.020;5.304;2023-04-15T00:26:13;2.27;;;0.90;;
19213;SDS011;9741;51.020;5.304;2023-04-15T00:28:42;1.70;;;0.83;;
19213;SDS011;9741;51.020;5.304;2023-04-15T00:31:09;0.63;;;0.63;;
19213;SDS011;9741;51.020;5.304;2023-04-15T00:33:36;6.70;;;1.50;;
19213;SDS011;9741;51.020;5.304;2023-04-15T00:36:05;0.90;;;0.87;;
19213;SDS011;9741;51.020;5.304;2023-04-15T00:38:32;1.37;;;0.73;;
19213;SDS011;9741;51.020;5.304;2023-04-15T00:40:59;0.90;;;0.83;;
19213;SDS011;9741;51.020;5.304;2023-04-15T00:43:28;2.00;;;0.70;;
19213;SDS011;9741;51.020;5.304;2023-04-15T00:45:57;0.67;;;0.67;;
19213;SDS011;9741;51.020;5.304;2023-04-15T00:48:24;0.50;;;0.50;;
19213;SDS011;9741;51.020;5.304;2023-04-15T00:50:52;0.50;;;0.50;;
19213;SDS011;9741;51.020;5.304;2023-04-15T00:53:19;0.60;;;0.60;;
19213;SDS011;9741;51.020;5.304;2023-04-15T00:55:47;1.17;;;0.70;;
19213;SDS011;9741;51.020;5.304;2023-04-15T00:58:15;0.77;;;0.77;;
19213;SDS011;9741;51.020;5.304;2023-04-15T01:00:43;1.50;;;1.13;;
19213;SDS011;9741;51.020;5.304;2023-04-15T01:03:12;1.70;;;0.80;;
19213;SDS011;9741;51.020;5.304;2023-04-15T01:05:39;0.60;;;0.60;;
19213;SDS011;9741;51.020;5.304;2023-04-15T01:08:06;0.50;;;0.50;;
19213;SDS011;9741;51.020;5.304;2023-04-15T01:10:34;0.90;;;0.87;;
19213;SDS011;9741;51.020;5.304;2023-04-15T01:13:02;1.30;;;0.90;;
19213;SDS011;9741;51.020;5.304;2023-04-15T01:15:29;0.63;;;0.63;;
19213;SDS011;9741;51.020;5.304;2023-04-15T01:17:56;1.33;;;0.93;;
19213;SDS011;9741;51.020;5.304;2023-04-15T01:20:26;1.33;;;1.23;;
19213;SDS011;9741;51.020;5.304;2023-04-15T01:22:54;1.27;;;1.17;;
19213;SDS011;9741;51.020;5.304;2023-04-15T01:25:27;0.60;;;0.60;;
19213;SDS011;9741;51.020;5.304;2023-04-15T01:27:57;2.40;;;0.97;;
19213;SDS011;9741;51.020;5.304;2023-04-15T01:30:24;0.50;;;0.50;;
19213;SDS011;9741;51.020;5.304;2023-04-15T01:32:52;1.00;;;0.97;;
19213;SDS011;9741;51.020;5.304;2023-04-15T01:35:22;5.50;;;0.70;;
19213;SDS011;9741;51.020;5.304;2023-04-15T01:37:49;1.23;;;0.80;;
19213;SDS011;9741;51.020;5.304;2023-04-15T01:40:16;0.30;;;0.30;;
19213;SDS011;9741;51.020;5.304;2023-04-15T01:42:45;0.80;;;0.80;;
19213;SDS011;9741;51.020;5.304;2023-04-15T01:45:12;0.70;;;0.70;;
19213;SDS011;9741;51.020;5.304;2023-04-15T01:47:39;0.67;;;0.63;;
19213;SDS011;9741;51.020;5.304;2023-04-15T01:50:07;0.70;;;0.70;;
19213;SDS011;9741;51.020;5.304;2023-04-15T01:52:34;0.50;;;0.50;;
19213;SDS011;9741;51.020;5.304;2023-04-15T01:55:01;0.83;;;0.60;;
19213;SDS011;9741;51.020;5.304;2023-04-15T01:57:29;0.57;;;0.50;;
19213;SDS011;9741;51.020;5.304;2023-04-15T01:59:57;2.23;;;0.87;;
19213;SDS011;9741;51.020;5.304;2023-04-15T02:02:25;0.70;;;0.63;;
19213;SDS011;9741;51.020;5.304;2023-04-15T02:04:52;0.40;;;0.40;;
19213;SDS011;9741;51.020;5.304;2023-04-15T02:07:19;3.23;;;1.50;;
19213;SDS011;9741;51.020;5.304;2023-04-15T02:09:46;0.97;;;0.87;;
19213;SDS011;9741;51.020;5.304;2023-04-15T02:12:13;1.23;;;1.00;;
19213;SDS011;9741;51.020;5.304;2023-04-15T02:14:41;1.70;;;0.80;;
19213;SDS011;9741;51.020;5.304;2023-04-15T02:17:09;0.73;;;0.70;;
19213;SDS011;9741;51.020;5.304;2023-04-15T02:19:36;0.80;;;0.80;;
19213;SDS011;9741;51.020;5.304;2023-04-15T02:22:04;0.70;;;0.60;;
19213;SDS011;9741;51.020;5.304;2023-04-15T02:24:33;0.80;;;0.80;;
19213;SDS011;9741;51.020;5.304;2023-04-15T02:27:00;0.60;;;0.60;;
19213;SDS011;9741;51.020;5.304;2023-04-15T02:29:27;1.27;;;1.07;;
19213;SDS011;9741;51.020;5.304;2023-04-15T02:31:56;2.13;;;0.97;;
19213;SDS011;9741;51.020;5.304;2023-04-15T02:34:25;0.37;;;0.37;;
19213;SDS011;9741;51.020;5.304;2023-04-15T02:36:52;0.90;;;0.57;;
19213;SDS011;9741;51.020;5.304;2023-04-15T02:39:21;3.13;;;0.80;;
19213;SDS011;9741;51.020;5.304;2023-04-15T02:41:49;0.77;;;0.77;;
19213;SDS011;9741;51.020;5.304;2023-04-15T02:44:16;0.33;;;0.33;;
19213;SDS011;9741;51.020;5.304;2023-04-15T02:46:44;0.73;;;0.73;;
19213;SDS011;9741;51.020;5.304;2023-04-15T02:49:14;0.57;;;0.57;;
19213;SDS011;9741;51.020;5.304;2023-04-15T02:51:43;2.13;;;1.10;;
19213;SDS011;9741;51.020;5.304;2023-04-15T02:54:12;0.80;;;0.80;;
19213;SDS011;9741;51.020;5.304;2023-04-15T02:56:39;0.80;;;0.80;;
19213;SDS011;9741;51.020;5.304;2023-04-15T02:59:06;0.63;;;0.63;;
19213;SDS011;9741;51.020;5.304;2023-04-15T03:01:33;0.87;;;0.87;;
19213;SDS011;9741;51.020;5.304;2023-04-15T03:04:01;0.77;;;0.67;;
19213;SDS011;9741;51.020;5.304;2023-04-15T03:06:28;0.40;;;0.40;;
19213;SDS011;9741;51.020;5.304;2023-04-15T03:08:57;1.80;;;1.23;;
19213;SDS011;9741;51.020;5.304;2023-04-15T03:11:26;0.70;;;0.60;;
19213;SDS011;9741;51.020;5.304;2023-04-15T03:13:54;1.07;;;0.97;;
19213;SDS011;9741;51.020;5.304;2023-04-15T03:16:21;0.60;;;0.60;;
19213;SDS011;9741;51.020;5.304;2023-04-15T03:18:48;1.07;;;0.97;;
19213;SDS011;9741;51.020;5.304;2023-04-15T03:21:15;0.30;;;0.30;;
19213;SDS011;9741;51.020;5.304;2023-04-15T03:23:44;2.10;;;1.63;;
19213;SDS011;9741;51.020;5.304;2023-04-15T03:26:24;0.63;;;0.63;;
19213;SDS011;9741;51.020;5.304;2023-04-15T03:28:53;0.30;;;0.30;;
19213;SDS011;9741;51.020;5.304;2023-04-15T03:31:20;0.60;;;0.60;;
19213;SDS011;9741;51.020;5.304;2023-04-15T03:33:48;0.60;;;0.60;;
19213;SDS011;9741;51.020;5.304;2023-04-15T03:36:15;2.43;;;1.57;;
19213;SDS011;9741;51.020;5.304;2023-04-15T03:38:42;1.70;;;0.80;;
19213;SDS011;9741;51.020;5.304;2023-04-15T03:41:09;0.87;;;0.83;;
19213;SDS011;9741;51.020;5.304;2023-04-15T03:43:38;1.00;;;1.00;;
19213;SDS011;9741;51.020;5.304;2023-04-15T03:46:05;0.97;;;0.93;;
19213;SDS011;9741;51.020;5.304;2023-04-15T03:48:32;1.60;;;1.20;;
19213;SDS011;9741;51.020;5.304;2023-04-15T03:51:00;1.00;;;0.93;;
19213;SDS011;9741;51.020;5.304;2023-04-15T03:53:27;0.87;;;0.87;;
19213;SDS011;9741;51.020;5.304;2023-04-15T03:55:54;1.30;;;0.93;;
19213;SDS011;9741;51.020;5.304;2023-04-15T03:58:21;1.20;;;1.07;;
19213;SDS011;9741;51.020;5.304;2023-04-15T04:00:50;0.90;;;0.90;;
19213;SDS011;9741;51.020;5.304;2023-04-15T04:03:17;1.90;;;1.27;;
19213;SDS011;9741;51.020;5.304;2023-04-15T04:05:44;0.73;;;0.73;;
19213;SDS011;9741;51.020;5.304;2023-04-15T04:08:11;0.40;;;0.40;;
19213;SDS011;9741;51.020;5.304;2023-04-15T04:10:42;0.60;;;0.60;;
19213;SDS011;9741;51.020;5.304;2023-04-15T04:13:09;0.60;;;0.60;;
19213;SDS011;9741;51.020;5.304;2023-04-15T04:15:36;1.13;;;1.03;;
19213;SDS011;9741;51.020;5.304;2023-04-15T04:18:05;0.53;;;0.53;;
19213;SDS011;9741;51.020;5.304;2023-04-15T04:20:32;0.90;;;0.63;;
19213;SDS011;9741;51.020;5.304;2023-04-15T04:22:59;1.50;;;0.73;;
19213;SDS011;9741;51.020;5.304;2023-04-15T04:25:26;0.77;;;0.70;;
19213;SDS011;9741;51.020;5.304;2023-04-15T04:27:53;0.57;;;0.57;;
19213;SDS011;9741;51.020;5.304;2023-04-15T04:30:20;2.00;;;1.37;;
19213;SDS011;9741;51.020;5.304;2023-04-15T04:32:48;5.83;;;1.37;;
19213;SDS011;9741;51.020;5.304;2023-04-15T04:35:17;0.90;;;0.60;;
19213;SDS011;9741;51.020;5.304;2023-04-15T04:37:44;1.43;;;1.33;;
19213;SDS011;9741;51.020;5.304;2023-04-15T04:40:12;0.83;;;0.83;;
19213;SDS011;9741;51.020;5.304;2023-04-15T04:42:39;8.30;;;1.10;;
19213;SDS011;9741;51.020;5.304;2023-04-15T04:45:06;0.43;;;0.43;;
19213;SDS011;9741;51.020;5.304;2023-04-15T04:47:34;0.63;;;0.60;;
19213;SDS011;9741;51.020;5.304;2023-04-15T04:50:01;0.43;;;0.43;;
19213;SDS011;9741;51.020;5.304;2023-04-15T04:52:30;0.70;;;0.70;;
19213;SDS011;9741;51.020;5.304;2023-04-15T04:54:57;0.40;;;0.40;;
19213;SDS011;9741;51.020;5.304;2023-04-15T04:57:24;3.40;;;0.87;;
19213;SDS011;9741;51.020;5.304;2023-04-15T04:59:51;0.70;;;0.70;;
19213;SDS011;9741;51.020;5.304;2023-04-15T05:02:18;0.40;;;0.40;;
19213;SDS011;9741;51.020;5.304;2023-04-15T05:04:46;0.63;;;0.63;;
19213;SDS011;9741;51.020;5.304;2023-04-15T05:07:14;0.50;;;0.50;;
19213;SDS011;9741;51.020;5.304;2023-04-15T05:09:42;0.70;;;0.70;;
19213;SDS011;9741;51.020;5.304;2023-04-15T05:12:09;0.40;;;0.40;;
19213;SDS011;9741;51.020;5.304;2023-04-15T05:14:39;0.67;;;0.50;;
19213;SDS011;9741;51.020;5.304;2023-04-15T05:17:06;0.53;;;0.53;;
19213;SDS011;9741;51.020;5.304;2023-04-15T05:19:33;1.43;;;1.17;;
19213;SDS011;9741;51.020;5.304;2023-04-15T05:22:00;1.23;;;0.67;;
19213;SDS011;9741;51.020;5.304;2023-04-15T05:24:28;0.63;;;0.63;;
19213;SDS011;9741;51.020;5.304;2023-04-15T05:26:56;0.80;;;0.80;;
19213;SDS011;9741;51.020;5.304;2023-04-15T05:29:23;0.70;;;0.70;;
19213;SDS011;9741;51.020;5.304;2023-04-15T05:31:50;2.50;;;1.77;;
19213;SDS011;9741;51.020;5.304;2023-04-15T05:34:17;0.63;;;0.63;;
19213;SDS011;9741;51.020;5.304;2023-04-15T05:36:44;0.80;;;0.80;;
19213;SDS011;9741;51.020;5.304;2023-04-15T05:39:11;0.40;;;0.40;;
19213;SDS011;9741;51.020;5.304;2023-04-15T05:41:39;0.53;;;0.53;;
19213;SDS011;9741;51.020;5.304;2023-04-15T05:44:07;1.07;;;0.93;;
19213;SDS011;9741;51.020;5.304;2023-04-15T05:46:34;1.33;;;0.83;;
19213;SDS011;9741;51.020;5.304;2023-04-15T05:49:01;1.33;;;1.23;;
19213;SDS011;9741;51.020;5.304;2023-04-15T05:51:31;1.57;;;1.10;;
19213;SDS011;9741;51.020;5.304;2023-04-15T05:53:58;4.27;;;2.07;;
19213;SDS011;9741;51.020;5.304;2023-04-15T05:56:25;2.87;;;1.20;;
19213;SDS011;9741;51.020;5.304;2023-04-15T05:58:52;1.47;;;1.30;;
19213;SDS011;9741;51.020;5.304;2023-04-15T06:01:21;6.30;;;1.90;;
19213;SDS011;9741;51.020;5.304;2023-04-15T06:03:48;1.40;;;1.20;;
19213;SDS011;9741;51.020;5.304;2023-04-15T06:06:15;2.97;;;1.00;;
19213;SDS011;9741;51.020;5.304;2023-04-15T06:08:42;2.57;;;1.93;;
19213;SDS011;9741;51.020;5.304;2023-04-15T06:11:10;2.93;;;2.07;;
19213;SDS011;9741;51.020;5.304;2023-04-15T06:13:37;3.83;;;2.60;;
19213;SDS011;9741;51.020;5.304;2023-04-15T06:16:04;2.67;;;1.70;;
19213;SDS011;9741;51.020;5.304;2023-04-15T06:18:34;1.67;;;1.47;;
19213;SDS011;9741;51.020;5.304;2023-04-15T06:21:01;2.07;;;1.60;;
19213;SDS011;9741;51.020;5.304;2023-04-15T06:23:28;2.53;;;2.13;;
19213;SDS011;9741;51.020;5.304;2023-04-15T06:25:55;2.17;;;1.97;;
19213;SDS011;9741;51.020;5.304;2023-04-15T06:28:22;3.30;;;2.00;;
19213;SDS011;9741;51.020;5.304;2023-04-15T06:30:50;3.83;;;2.20;;
19213;SDS011;9741;51.020;5.304;2023-04-15T06:33:18;6.87;;;1.67;;
19213;SDS011;9741;51.020;5.304;2023-04-15T06:35:46;6.67;;;2.53;;
19213;SDS011;9741;51.020;5.304;2023-04-15T06:38:13;1.97;;;1.83;;
19213;SDS011;9741;51.020;5.304;2023-04-15T06:40:41;3.93;;;2.33;;
19213;SDS011;9741;51.020;5.304;2023-04-15T06:43:08;5.53;;;2.70;;
19213;SDS011;9741;51.020;5.304;2023-04-15T06:45:35;2.77;;;2.57;;
19213;SDS011;9741;51.020;5.304;2023-04-15T06:48:03;6.17;;;2.20;;
19213;SDS011;9741;51.020;5.304;2023-04-15T06:50:31;1.73;;;1.50;;
19213;SDS011;9741;51.020;5.304;2023-04-15T06:53:01;3.30;;;2.17;;
19213;SDS011;9741;51.020;5.304;2023-04-15T06:55:28;4.27;;;2.57;;
19213;SDS011;9741;51.020;5.304;2023-04-15T06:57:55;2.57;;;1.93;;
19213;SDS011;9741;51.020;5.304;2023-04-15T07:00:22;5.43;;;2.33;;
19213;SDS011;9741;51.020;5.304;2023-04-15T07:02:50;4.20;;;2.00;;
19213;SDS011;9741;51.020;5.304;2023-04-15T07:05:17;6.03;;;2.80;;
19213;SDS011;9741;51.020;5.304;2023-04-15T07:07:44;4.60;;;2.47;;
19213;SDS011;9741;51.020;5.304;2023-04-15T07:10:14;3.13;;;2.43;;
19213;SDS011;9741;51.020;5.304;2023-04-15T07:12:49;5.47;;;2.53;;
19213;SDS011;9741;51.020;5.304;2023-04-15T07:15:16;4.10;;;1.43;;
19213;SDS011;9741;51.020;5.304;2023-04-15T07:17:43;6.33;;;1.77;;
19213;SDS011;9741;51.020;5.304;2023-04-15T07:20:11;2.40;;;1.87;;
19213;SDS011;9741;51.020;5.304;2023-04-15T07:22:39;2.75;;;1.65;;
19213;SDS011;9741;51.020;5.304;2023-04-15T07:25:07;6.47;;;2.38;;
19213;SDS011;9741;51.020;5.304;2023-04-15T07:27:39;6.40;;;2.40;;
19213;SDS011;9741;51.020;5.304;2023-04-15T07:30:06;2.90;;;2.05;;
19213;SDS011;9741;51.020;5.304;2023-04-15T07:32:34;2.28;;;1.58;;
19213;SDS011;9741;51.020;5.304;2023-04-15T07:35:02;4.80;;;2.85;;
19213;SDS011;9741;51.020;5.304;2023-04-15T07:37:29;2.50;;;2.28;;
19213;SDS011;9741;51.020;5.304;2023-04-15T07:39:58;1.30;;;1.20;;
19213;SDS011;9741;51.020;5.304;2023-04-15T07:42:26;3.08;;;1.63;;
19213;SDS011;9741;51.020;5.304;2023-04-15T07:44:54;3.10;;;2.45;;
19213;SDS011;9741;51.020;5.304;2023-04-15T07:47:25;2.83;;;2.22;;
19213;SDS011;9741;51.020;5.304;2023-04-15T07:49:52;2.92;;;2.03;;
19213;SDS011;9741;51.020;5.304;2023-04-15T07:52:20;1.80;;;1.65;;
19213;SDS011;9741;51.020;5.304;2023-04-15T07:54:47;1.75;;;1.65;;
19213;SDS011;9741;51.020;5.304;2023-04-15T07:57:14;5.15;;;2.80;;
19213;SDS011;9741;51.020;5.304;2023-04-15T07:59:42;3.47;;;2.33;;
19213;SDS011;9741;51.020;5.304;2023-04-15T08:02:11;4.90;;;2.20;;
19213;SDS011;9741;51.020;5.304;2023-04-15T08:04:38;3.50;;;1.98;;
19213;SDS011;9741;51.020;5.304;2023-04-15T08:07:05;6.65;;;3.03;;
19213;SDS011;9741;51.020;5.304;2023-04-15T08:09:33;4.18;;;2.97;;
19213;SDS011;9741;51.020;5.304;2023-04-15T08:12:01;3.50;;;2.65;;
19213;SDS011;9741;51.020;5.304;2023-04-15T08:14:28;4.20;;;2.20;;
19213;SDS011;9741;51.020;5.304;2023-04-15T08:16:56;3.40;;;2.25;;
19213;SDS011;9741;51.020;5.304;2023-04-15T08:19:24;1.73;;;1.55;;
19213;SDS011;9741;51.020;5.304;2023-04-15T08:21:51;2.33;;;1.98;;
19213;SDS011;9741;51.020;5.304;2023-04-15T08:24:19;2.50;;;2.25;;
19213;SDS011;9741;51.020;5.304;2023-04-15T08:26:46;3.22;;;1.80;;
19213;SDS011;9741;51.020;5.304;2023-04-15T08:29:13;1.75;;;1.65;;
19213;SDS011;9741;51.020;5.304;2023-04-15T08:31:40;3.35;;;2.00;;
19213;SDS011;9741;51.020;5.304;2023-04-15T08:34:08;4.88;;;2.10;;
19213;SDS011;9741;51.020;5.304;2023-04-15T08:36:38;5.53;;;2.42;;
19213;SDS011;9741;51.020;5.304;2023-04-15T08:39:05;2.42;;;1.90;;
19213;SDS011;9741;51.020;5.304;2023-04-15T08:41:33;4.13;;;1.60;;
19213;SDS011;9741;51.020;5.304;2023-04-15T08:44:05;3.33;;;2.42;;
19213;SDS011;9741;51.020;5.304;2023-04-15T08:46:33;1.88;;;1.50;;
19213;SDS011;9741;51.020;5.304;2023-04-15T08:49:02;3.70;;;2.03;;
19213;SDS011;9741;51.020;5.304;2023-04-15T08:51:31;2.30;;;1.60;;
19213;SDS011;9741;51.020;5.304;2023-04-15T08:54:04;2.35;;;1.70;;
19213;SDS011;9741;51.020;5.304;2023-04-15T08:56:31;3.03;;;1.63;;
19213;SDS011;9741;51.020;5.304;2023-04-15T08:58:58;1.60;;;1.50;;
19213;SDS011;9741;51.020;5.304;2023-04-15T09:01:26;1.08;;;0.93;;
19213;SDS011;9741;51.020;5.304;2023-04-15T09:03:58;2.15;;;1.73;;
19213;SDS011;9741;51.020;5.304;2023-04-15T09:06:31;1.42;;;1.10;;
19213;SDS011;9741;51.020;5.304;2023-04-15T09:09:03;3.10;;;2.20;;
19213;SDS011;9741;51.020;5.304;2023-04-15T09:11:31;2.63;;;1.80;;
19213;SDS011;9741;51.020;5.304;2023-04-15T09:13:59;3.45;;;1.77;;
19213;SDS011;9741;51.020;5.304;2023-04-15T09:16:27;2.05;;;1.63;;
19213;SDS011;9741;51.020;5.304;2023-04-15T09:18:54;2.50;;;2.00;;
19213;SDS011;9741;51.020;5.304;2023-04-15T09:21:21;1.67;;;1.08;;
19213;SDS011;9741;51.020;5.304;2023-04-15T09:23:55;2.00;;;1.73;;
19213;SDS011;9741;51.020;5.304;2023-04-15T09:26:31;2.38;;;1.77;;
19213;SDS011;9741;51.020;5.304;2023-04-15T09:29:04;1.77;;;1.35;;
19213;SDS011;9741;51.020;5.304;2023-04-15T09:31:32;2.58;;;1.98;;
19213;SDS011;9741;51.020;5.304;2023-04-15T09:34:00;2.70;;;1.75;;
19213;SDS011;9741;51.020;5.304;2023-04-15T09:36:28;2.65;;;1.50;;
19213;SDS011;9741;51.020;5.304;2023-04-15T09:38:57;2.80;;;1.58;;
19213;SDS011;9741;51.020;5.304;2023-04-15T09:41:25;2.80;;;1.45;;
19213;SDS011;9741;51.020;5.304;2023-04-15T09:43:54;1.98;;;1.27;;
19213;SDS011;9741;51.020;5.304;2023-04-15T09:49:08;4.60;;;1.92;;
19213;SDS011;9741;51.020;5.304;2023-04-15T09:51:36;9.32;;;1.77;;
19213;SDS011;9741;51.020;5.304;2023-04-15T09:54:07;2.50;;;1.30;;
19213;SDS011;9741;51.020;5.304;2023-04-15T09:56:36;2.08;;;1.35;;
19213;SDS011;9741;51.020;5.304;2023-04-15T09:59:07;2.53;;;1.70;;
19213;SDS011;9741;51.020;5.304;2023-04-15T10:01:35;1.48;;;1.05;;
19213;SDS011;9741;51.020;5.304;2023-04-15T10:04:03;4.25;;;1.17;;
19213;SDS011;9741;51.020;5.304;2023-04-15T10:06:35;1.65;;;0.85;;
19213;SDS011;9741;51.020;5.304;2023-04-15T10:09:03;1.90;;;0.88;;
19213;SDS011;9741;51.020;5.304;2023-04-15T10:11:32;0.73;;;0.50;;
19213;SDS011;9741;51.020;5.304;2023-04-15T10:14:02;1.25;;;0.95;;
19213;SDS011;9741;51.020;5.304;2023-04-15T10:16:31;0.40;;;0.40;;
19213;SDS011;9741;51.020;5.304;2023-04-15T10:19:00;0.30;;;0.30;;
19213;SDS011;9741;51.020;5.304;2023-04-15T10:21:29;8.23;;;1.25;;
19213;SDS011;9741;51.020;5.304;2023-04-15T10:23:56;2.88;;;0.95;;
19213;SDS011;9741;51.020;5.304;2023-04-15T10:26:24;0.35;;;0.35;;
19213;SDS011;9741;51.020;5.304;2023-04-15T10:28:54;0.68;;;0.57;;
19213;SDS011;9741;51.020;5.304;2023-04-15T10:31:21;1.45;;;0.85;;
19213;SDS011;9741;51.020;5.304;2023-04-15T10:33:53;0.70;;;0.65;;
19213;SDS011;9741;51.020;5.304;2023-04-15T10:36:21;1.10;;;1.00;;
19213;SDS011;9741;51.020;5.304;2023-04-15T10:38:50;0.60;;;0.60;;
19213;SDS011;9741;51.020;5.304;2023-04-15T10:41:18;1.15;;;1.05;;
19213;SDS011;9741;51.020;5.304;2023-04-15T10:43:49;0.63;;;0.50;;
19213;SDS011;9741;51.020;5.304;2023-04-15T10:46:18;1.25;;;0.65;;
19213;SDS011;9741;51.020;5.304;2023-04-15T10:48:47;0.80;;;0.32;;
19213;SDS011;9741;51.020;5.304;2023-04-15T10:51:17;1.50;;;0.85;;
19213;SDS011;9741;51.020;5.304;2023-04-15T10:53:55;1.17;;;0.85;;
19213;SDS011;9741;51.020;5.304;2023-04-15T10:56:27;1.20;;;0.93;;
19213;SDS011;9741;51.020;5.304;2023-04-15T10:58:57;4.07;;;1.10;;
19213;SDS011;9741;51.020;5.304;2023-04-15T11:07:35;1.48;;;1.00;;
19213;SDS011;9741;51.020;5.304;2023-04-15T11:13:23;1.05;;;0.80;;
19213;SDS011;9741;51.020;5.304;2023-04-15T11:16:01;0.55;;;0.55;;
19213;SDS011;9741;51.020;5.304;2023-04-15T11:18:31;0.65;;;0.65;;
19213;SDS011;9741;51.020;5.304;2023-04-15T11:21:01;0.70;;;0.70;;
19213;SDS011;9741;51.020;5.304;2023-04-15T11:23:32;0.82;;;0.82;;
19213;SDS011;9741;51.020;5.304;2023-04-15T11:26:01;1.45;;;0.82;;
19213;SDS011;9741;51.020;5.304;2023-04-15T11:28:37;1.55;;;1.15;;
19213;SDS011;9741;51.020;5.304;2023-04-15T11:31:09;0.88;;;0.50;;
19213;SDS011;9741;51.020;5.304;2023-04-15T11:33:45;2.30;;;1.15;;
19213;SDS011;9741;51.020;5.304;2023-04-15T11:36:19;1.98;;;0.95;;
19213;SDS011;9741;51.020;5.304;2023-04-15T11:38:47;0.63;;;0.63;;
19213;SDS011;9741;51.020;5.304;2023-04-15T11:41:18;0.88;;;0.50;;
19213;SDS011;9741;51.020;5.304;2023-04-15T11:43:46;0.40;;;0.40;;
19213;SDS011;9741;51.020;5.304;2023-04-15T11:46:14;0.85;;;0.73;;
19213;SDS011;9741;51.020;5.304;2023-04-15T11:48:42;0.60;;;0.60;;
19213;SDS011;9741;51.020;5.304;2023-04-15T11:51:11;0.52;;;0.38;;
19213;SDS011;9741;51.020;5.304;2023-04-15T11:53:41;1.08;;;0.55;;
19213;SDS011;9741;51.020;5.304;2023-04-15T11:56:15;0.40;;;0.40;;
19213;SDS011;9741;51.020;5.304;2023-04-15T11:58:53;1.13;;;0.68;;
19213;SDS011;9741;51.020;5.304;2023-04-15T12:01:29;1.15;;;0.88;;
19213;SDS011;9741;51.020;5.304;2023-04-15T12:03:57;1.05;;;0.85;;
19213;SDS011;9741;51.020;5.304;2023-04-15T12:06:30;11.18;;;1.13;;
19213;SDS011;9741;51.020;5.304;2023-04-15T12:09:00;2.05;;;1.08;;
19213;SDS011;9741;51.020;5.304;2023-04-15T12:11:33;1.33;;;0.90;;
19213;SDS011;9741;51.020;5.304;2023-04-15T12:14:04;0.45;;;0.45;;
19213;SDS011;9741;51.020;5.304;2023-04-15T12:16:34;1.58;;;0.70;;
19213;SDS011;9741;51.020;5.304;2023-04-15T12:19:04;0.60;;;0.60;;
19213;SDS011;9741;51.020;5.304;2023-04-15T12:21:34;0.70;;;0.65;;
19213;SDS011;9741;51.020;5.304;2023-04-15T12:24:06;2.15;;;0.98;;
19213;SDS011;9741;51.020;5.304;2023-04-15T12:26:41;0.77;;;0.70;;
19213;SDS011;9741;51.020;5.304;2023-04-15T12:29:10;0.55;;;0.52;;
19213;SDS011;9741;51.020;5.304;2023-04-15T12:31:46;0.50;;;0.50;;
19213;SDS011;9741;51.020;5.304;2023-04-15T12:34:27;0.45;;;0.45;;
19213;SDS011;9741;51.020;5.304;2023-04-15T12:37:01;1.25;;;0.52;;
19213;SDS011;9741;51.020;5.304;2023-04-15T12:43:15;1.02;;;0.68;;
19213;SDS011;9741;51.020;5.304;2023-04-15T12:45:42;0.80;;;0.75;;
19213;SDS011;9741;51.020;5.304;2023-04-15T12:48:09;0.98;;;0.57;;
19213;SDS011;9741;51.020;5.304;2023-04-15T12:50:37;0.30;;;0.30;;
19213;SDS011;9741;51.020;5.304;2023-04-15T12:53:04;1.27;;;0.75;;
19213;SDS011;9741;51.020;5.304;2023-04-15T12:55:33;0.40;;;0.40;;
19213;SDS011;9741;51.020;5.304;2023-04-15T12:58:10;0.32;;;0.30;;
19213;SDS011;9741;51.020;5.304;2023-04-15T13:00:41;0.43;;;0.43;;
19213;SDS011;9741;51.020;5.304;2023-04-15T13:03:09;0.40;;;0.40;;
19213;SDS011;9741;51.020;5.304;2023-04-15T13:05:41;0.38;;;0.38;;
19213;SDS011;9741;51.020;5.304;2023-04-15T13:08:09;2.05;;;1.23;;
19213;SDS011;9741;51.020;5.304;2023-04-15T13:10:37;0.50;;;0.50;;
19213;SDS011;9741;51.020;5.304;2023-04-15T13:13:05;9.93;;;0.65;;
19213;SDS011;9741;51.020;5.304;2023-04-15T13:15:33;0.73;;;0.40;;
19213;SDS011;9741;51.020;5.304;2023-04-15T13:18:02;1.40;;;0.75;;
19213;SDS011;9741;51.020;5.304;2023-04-15T13:20:30;0.30;;;0.30;;
19213;SDS011;9741;51.020;5.304;2023-04-15T13:23:00;1.40;;;0.73;;
19213;SDS011;9741;51.020;5.304;2023-04-15T13:25:30;0.20;;;0.20;;
19213;SDS011;9741;51.020;5.304;2023-04-15T13:27:58;0.63;;;0.63;;
19213;SDS011;9741;51.020;5.304;2023-04-15T13:30:28;2.78;;;0.35;;
19213;SDS011;9741;51.020;5.304;2023-04-15T13:32:56;1.60;;;0.90;;
19213;SDS011;9741;51.020;5.304;2023-04-15T13:35:25;0.52;;;0.50;;
19213;SDS011;9741;51.020;5.304;2023-04-15T13:37:53;1.15;;;0.70;;
19213;SDS011;9741;51.020;5.304;2023-04-15T13:40:20;0.60;;;0.60;;
19213;SDS011;9741;51.020;5.304;2023-04-15T13:42:48;0.75;;;0.60;;
19213;SDS011;9741;51.020;5.304;2023-04-15T13:45:17;0.20;;;0.20;;
19213;SDS011;9741;51.020;5.304;2023-04-15T13:47:48;0.35;;;0.35;;
19213;SDS011;9741;51.020;5.304;2023-04-15T13:50:16;0.57;;;0.57;;
19213;SDS011;9741;51.020;5.304;2023-04-15T13:52:45;1.20;;;0.68;;
19213;SDS011;9741;51.020;5.304;2023-04-15T13:55:15;1.15;;;0.68;;
19213;SDS011;9741;51.020;5.304;2023-04-15T13:57:45;0.30;;;0.30;;
19213;SDS011;9741;51.020;5.304;2023-04-15T14:00:12;0.57;;;0.57;;
19213;SDS011;9741;51.020;5.304;2023-04-15T14:02:41;0.50;;;0.50;;
19213;SDS011;9741;51.020;5.304;2023-04-15T14:05:08;0.47;;;0.43;;
19213;SDS011;9741;51.020;5.304;2023-04-15T14:07:36;0.70;;;0.40;;
19213;SDS011;9741;51.020;5.304;2023-04-15T14:10:06;1.45;;;0.60;;
19213;SDS011;9741;51.020;5.304;2023-04-15T14:12:34;1.02;;;0.73;;
19213;SDS011;9741;51.020;5.304;2023-04-15T14:15:02;0.73;;;0.47;;
19213;SDS011;9741;51.020;5.304;2023-04-15T14:17:30;1.10;;;0.65;;
19213;SDS011;9741;51.020;5.304;2023-04-15T14:19:58;0.35;;;0.35;;
19213;SDS011;9741;51.020;5.304;2023-04-15T14:22:25;0.38;;;0.38;;
19213;SDS011;9741;51.020;5.304;2023-04-15T14:24:52;1.10;;;0.88;;
19213;SDS011;9741;51.020;5.304;2023-04-15T14:27:21;0.68;;;0.50;;
19213;SDS011;9741;51.020;5.304;2023-04-15T14:29:48;0.88;;;0.47;;
19213;SDS011;9741;51.020;5.304;2023-04-15T14:32:15;1.00;;;0.85;;
19213;SDS011;9741;51.020;5.304;2023-04-15T14:34:43;0.70;;;0.70;;
19213;SDS011;9741;51.020;5.304;2023-04-15T14:37:11;0.57;;;0.40;;
19213;SDS011;9741;51.020;5.304;2023-04-15T14:39:39;0.70;;;0.60;;
19213;SDS011;9741;51.020;5.304;2023-04-15T14:42:06;0.57;;;0.57;;
19213;SDS011;9741;51.020;5.304;2023-04-15T14:44:34;0.40;;;0.40;;
19213;SDS011;9741;51.020;5.304;2023-04-15T14:47:03;1.67;;;0.73;;
19213;SDS011;9741;51.020;5.304;2023-04-15T14:49:31;0.45;;;0.45;;
19213;SDS011;9741;51.020;5.304;2023-04-15T14:51:59;0.82;;;0.70;;
19213;SDS011;9741;51.020;5.304;2023-04-15T14:54:26;0.30;;;0.30;;
19213;SDS011;9741;51.020;5.304;2023-04-15T14:56:53;0.68;;;0.32;;
19213;SDS011;9741;51.020;5.304;2023-04-15T14:59:20;1.55;;;0.80;;
19213;SDS011;9741;51.020;5.304;2023-04-15T15:01:50;0.40;;;0.40;;
19213;SDS011;9741;51.020;5.304;2023-04-15T15:04:18;0.15;;;0.15;;
19213;SDS011;9741;51.020;5.304;2023-04-15T15:06:45;0.20;;;0.20;;
19213;SDS011;9741;51.020;5.304;2023-04-15T15:09:12;0.20;;;0.20;;
19213;SDS011;9741;51.020;5.304;2023-04-15T15:11:40;0.20;;;0.20;;
19213;SDS011;9741;51.020;5.304;2023-04-15T15:14:11;1.25;;;0.60;;
19213;SDS011;9741;51.020;5.304;2023-04-15T15:16:39;0.40;;;0.40;;
19213;SDS011;9741;51.020;5.304;2023-04-15T15:19:08;2.50;;;0.38;;
19213;SDS011;9741;51.020;5.304;2023-04-15T15:21:38;0.63;;;0.43;;
19213;SDS011;9741;51.020;5.304;2023-04-15T15:24:05;2.75;;;0.43;;